Terminal Aerodrome Forecast
Issued by NWS Sioux Falls, SD

Home | Current Version | Previous Version | Text Only | Print | Product List | Glossary Off
Versions: 1 2 3 4 5 6 7 8 9 10 11 12 13 14 15 16 17 18 19 20 21 22 23 24 25 26 27 28 29 30 31 32 33 34 35 36 37 38 39 40 41

000
FTUS43 KFSD 131700
TAFSUX
TAF
KSUX 131730Z 1318/1418 32011KT P6SM SCT040
     FM132000 32012G19KT P6SM BKN050
      TEMPO 1320/1323 SHRA
     FM140030 34006KT P6SM SCT060 SCT150
     FM141500 35014G20KT P6SM FEW045=

USA.gov is the U.S. government's official web portal to all federal, state and local government web resources and services.